Time;durP1;ratioP1;P1;durP2;ratioP2;P2;SDS_P1;SDS_P2;PMS_P1;PMS_P2;Temp;Humidity;BMP_temperature;BMP_pressure;BME280_temperature;BME280_humidity;BME280_pressure;Samples;Min_cycle;Max_cycle;Signal;HPM_P1;HPM_P2
2023/02/06 00:01:17;;;;;;;0.50;0.30;;;;;;;;;;4151917;28;20054;-42
2023/02/06 00:03:19;;;;;;;0.20;0.20;;;;;;;;;;4151970;28;20547;-42
2023/02/06 00:05:20;;;;;;;0.38;0.20;;;;;;;;;;4152109;28;20058;-42
2023/02/06 00:07:21;;;;;;;0.30;0.20;;;;;;;;;;4151958;28;20076;-42
2023/02/06 00:09:23;;;;;;;0.28;0.20;;;;;;;;;;4151370;28;20061;-43
2023/02/06 00:11:24;;;;;;;0.25;0.17;;;;;;;;;;4151797;28;20058;-42
2023/02/06 00:13:26;;;;;;;0.28;0.20;;;;;;;;;;4151768;28;20081;-44
2023/02/06 00:15:27;;;;;;;0.45;0.25;;;;;;;;;;4151821;28;20199;-42
2023/02/06 00:17:29;;;;;;;0.10;0.10;;;;;;;;;;4118323;28;20149;-42
2023/02/06 00:19:30;;;;;;;0.50;0.20;;;;;;;;;;4151338;28;20100;-42
2023/02/06 00:21:31;;;;;;;0.30;0.20;;;;;;;;;;4134369;28;20128;-42
2023/02/06 00:23:33;;;;;;;0.60;0.20;;;;;;;;;;4151946;28;20393;-43
2023/02/06 00:25:34;;;;;;;0.85;0.35;;;;;;;;;;4133784;28;20058;-43
2023/02/06 00:27:35;;;;;;;0.43;0.32;;;;;;;;;;4151519;28;20516;-42
2023/02/06 00:29:37;;;;;;;0.38;0.30;;;;;;;;;;4134060;28;20089;-42
2023/02/06 00:31:38;;;;;;;0.47;0.30;;;;;;;;;;4151891;28;20622;-42
2023/02/06 00:33:41;;;;;;;0.45;0.20;;;;;;;;;;4118243;28;20058;-42
2023/02/06 00:35:42;;;;;;;0.40;0.30;;;;;;;;;;4133999;28;20509;-42
2023/02/06 00:37:44;;;;;;;0.22;0.13;;;;;;;;;;4151706;28;20053;-45
2023/02/06 00:39:45;;;;;;;0.52;0.30;;;;;;;;;;4151153;28;20553;-42
2023/02/06 00:41:46;;;;;;;0.38;0.22;;;;;;;;;;4151643;28;20081;-42
2023/02/06 00:43:47;;;;;;;0.20;0.20;;;;;;;;;;4151713;28;20398;-44
2023/02/06 00:45:53;;;;;;;0.20;0.20;;;;;;;;;;4121254;28;20050;-42
2023/02/06 00:47:56;;;;;;;0.20;0.20;;;;;;;;;;4151808;28;20061;-42
2023/02/06 00:49:57;;;;;;;0.32;0.30;;;;;;;;;;4148863;28;20084;-42
2023/02/06 00:51:58;;;;;;;0.30;0.10;;;;;;;;;;4149139;28;20100;-42
2023/02/06 00:53:59;;;;;;;0.28;0.28;;;;;;;;;;4147974;28;20517;-42
2023/02/06 00:56:01;;;;;;;0.20;0.20;;;;;;;;;;4148339;28;20058;-43
2023/02/06 00:58:03;;;;;;;0.30;0.30;;;;;;;;;;4148904;28;20060;-42
2023/02/06 01:00:06;;;;;;;0.95;0.20;;;;;;;;;;4149042;28;20053;-42
2023/02/06 01:02:07;;;;;;;0.25;0.25;;;;;;;;;;4148340;28;20110;-42
2023/02/06 01:04:09;;;;;;;0.22;0.20;;;;;;;;;;4130931;28;20058;-45
2023/02/06 01:06:12;;;;;;;0.20;0.20;;;;;;;;;;4115640;28;20043;-45
2023/02/06 01:08:14;;;;;;;0.20;0.20;;;;;;;;;;4148940;28;20053;-43
2023/02/06 01:10:15;;;;;;;0.40;0.30;;;;;;;;;;4147846;28;20080;-42
2023/02/06 01:12:16;;;;;;;0.52;0.30;;;;;;;;;;4148557;28;20574;-44
2023/02/06 01:14:18;;;;;;;0.28;0.20;;;;;;;;;;4148523;28;20057;-42
2023/02/06 01:16:22;;;;;;;0.40;0.20;;;;;;;;;;4131330;28;20050;-43
2023/02/06 01:18:23;;;;;;;0.75;0.10;;;;;;;;;;4135056;28;20054;-42
2023/02/06 01:20:24;;;;;;;0.20;0.20;;;;;;;;;;4148598;28;20088;-42
2023/02/06 01:22:27;;;;;;;0.20;0.20;;;;;;;;;;4148703;28;20081;-43
2023/02/06 01:24:28;;;;;;;0.20;0.20;;;;;;;;;;4148126;28;20061;-45
2023/02/06 01:26:30;;;;;;;0.20;0.20;;;;;;;;;;4131349;28;20510;-43
2023/02/06 01:28:31;;;;;;;0.20;0.20;;;;;;;;;;4135442;28;20123;-42
2023/02/06 01:30:33;;;;;;;0.32;0.30;;;;;;;;;;4148553;28;20050;-42
2023/02/06 01:32:38;;;;;;;0.47;0.30;;;;;;;;;;4148469;28;20054;-42
2023/02/06 01:34:40;;;;;;;0.43;0.20;;;;;;;;;;4148345;28;20100;-43
2023/02/06 01:36:41;;;;;;;0.35;0.20;;;;;;;;;;4148144;28;20545;-42
2023/02/06 01:38:43;;;;;;;0.30;0.10;;;;;;;;;;4148396;28;20100;-44
2023/02/06 01:40:44;;;;;;;0.38;0.30;;;;;;;;;;4147905;28;20058;-42
2023/02/06 01:42:46;;;;;;;0.20;0.13;;;;;;;;;;4148647;28;20108;-43
2023/02/06 01:44:47;;;;;;;0.30;0.20;;;;;;;;;;4130676;28;20097;-43
2023/02/06 01:46:51;;;;;;;0.15;0.15;;;;;;;;;;4130798;28;20100;-44
2023/02/06 01:48:53;;;;;;;0.10;0.10;;;;;;;;;;4148316;28;20062;-42
2023/02/06 01:50:56;;;;;;;0.25;0.20;;;;;;;;;;4130940;28;20065;-45
2023/02/06 01:52:57;;;;;;;0.28;0.20;;;;;;;;;;4153635;28;20060;-43
2023/02/06 01:55:00;;;;;;;0.28;0.28;;;;;;;;;;4147717;28;20050;-41
2023/02/06 01:57:05;;;;;;;0.38;0.30;;;;;;;;;;4130748;28;20077;-42
2023/02/06 01:59:07;;;;;;;0.10;0.10;;;;;;;;;;4130784;28;20058;-41
2023/02/06 02:01:09;;;;;;;0.20;0.20;;;;;;;;;;4147558;28;20100;-42
2023/02/06 02:03:11;;;;;;;0.20;0.20;;;;;;;;;;4130773;28;20058;-43
2023/02/06 02:05:13;;;;;;;0.10;0.10;;;;;;;;;;4147808;28;20112;-43
2023/02/06 02:07:41;;;;;;;0.17;0.17;;;;;;;;;;4114647;28;20059;-42
2023/02/06 02:09:42;;;;;;;0.45;0.30;;;;;;;;;;4147159;28;20461;-42
2023/02/06 02:11:43;;;;;;;0.30;0.30;;;;;;;;;;4147766;28;20108;-42
2023/02/06 02:13:45;;;;;;;0.75;0.28;;;;;;;;;;4130319;28;20066;-43
2023/02/06 02:15:59;;;;;;;0.20;0.10;;;;;;;;;;4147584;28;20409;-42
2023/02/06 02:18:13;;;;;;;0.52;0.30;;;;;;;;;;4118951;28;20054;-43
2023/02/06 02:20:50;;;;;;;0.30;0.20;;;;;;;;;;4123951;28;20138;-42
2023/02/06 02:23:00;;;;;;;0.30;0.20;;;;;;;;;;4118317;28;20062;-42
2023/02/06 02:25:35;;;;;;;0.35;0.20;;;;;;;;;;4147326;28;20480;-42
2023/02/06 02:28:19;;;;;;;0.40;0.25;;;;;;;;;;4147399;28;20567;-43
2023/02/06 02:30:32;;;;;;;0.10;0.10;;;;;;;;;;4147487;28;20108;-43
2023/02/06 02:32:40;;;;;;;0.10;0.10;;;;;;;;;;4147510;28;20054;-42
2023/02/06 02:34:59;;;;;;;0.20;0.20;;;;;;;;;;4130186;28;20089;-45
2023/02/06 02:37:13;;;;;;;0.20;0.20;;;;;;;;;;4129938;28;20152;-42
2023/02/06 02:39:32;;;;;;;0.60;0.28;;;;;;;;;;4147030;28;20514;-42
2023/02/06 02:41:49;;;;;;;0.10;0.10;;;;;;;;;;4130078;28;20058;-43
2023/02/06 02:44:19;;;;;;;0.55;0.40;;;;;;;;;;4128506;28;20062;-42
2023/02/06 02:46:37;;;;;;;0.30;0.30;;;;;;;;;;4129774;28;20054;-43
2023/02/06 02:48:42;;;;;;;0.15;0.10;;;;;;;;;;4129637;28;20089;-42
2023/02/06 02:50:43;;;;;;;0.35;0.28;;;;;;;;;;4129583;28;20069;-42
2023/02/06 02:52:45;;;;;;;0.20;0.20;;;;;;;;;;4129633;28;20058;-43
2023/02/06 02:54:46;;;;;;;0.47;0.10;;;;;;;;;;4113141;28;20082;-43
2023/02/06 02:56:48;;;;;;;0.52;0.30;;;;;;;;;;4144291;28;20054;-43
2023/02/06 02:58:54;;;;;;;0.20;0.20;;;;;;;;;;4113416;28;20109;-42
2023/02/06 03:01:00;;;;;;;0.17;0.10;;;;;;;;;;4147070;28;20079;-43
2023/02/06 03:03:04;;;;;;;0.25;0.20;;;;;;;;;;4130085;28;20057;-42
2023/02/06 03:05:07;;;;;;;0.30;0.30;;;;;;;;;;4126120;28;20057;-43
2023/02/06 03:07:32;;;;;;;0.75;0.20;;;;;;;;;;4146931;28;20054;-42
2023/02/06 03:09:36;;;;;;;0.15;0.13;;;;;;;;;;4146671;28;20111;-42
2023/02/06 03:11:42;;;;;;;0.20;0.20;;;;;;;;;;4146639;28;20168;-42
2023/02/06 03:14:01;;;;;;;0.50;0.20;;;;;;;;;;4112824;28;20478;-43
2023/02/06 03:16:17;;;;;;;0.22;0.20;;;;;;;;;;4113321;28;20097;-44
2023/02/06 03:18:39;;;;;;;0.32;0.20;;;;;;;;;;4143631;28;20532;-43
2023/02/06 03:20:42;;;;;;;0.45;0.35;;;;;;;;;;4129715;28;20061;-43
2023/02/06 03:22:46;;;;;;;0.20;0.20;;;;;;;;;;4147022;28;20461;-42
2023/02/06 03:24:48;;;;;;;0.25;0.22;;;;;;;;;;4146021;28;20054;-42
2023/02/06 03:26:53;;;;;;;0.30;0.20;;;;;;;;;;4146768;28;20070;-42
2023/02/06 03:28:59;;;;;;;0.15;0.13;;;;;;;;;;4113626;28;20089;-42
2023/02/06 03:31:02;;;;;;;0.38;0.28;;;;;;;;;;4129252;28;20050;-42
2023/02/06 03:33:06;;;;;;;0.63;0.32;;;;;;;;;;4127039;28;20109;-42
2023/02/06 03:35:10;;;;;;;0.20;0.20;;;;;;;;;;4113102;28;20062;-42
2023/02/06 03:37:12;;;;;;;0.43;0.30;;;;;;;;;;4138511;28;20100;-42
2023/02/06 03:39:14;;;;;;;0.10;0.10;;;;;;;;;;4146199;28;20555;-42
2023/02/06 03:41:16;;;;;;;0.10;0.10;;;;;;;;;;4146301;28;20096;-44
2023/02/06 03:43:19;;;;;;;0.22;0.10;;;;;;;;;;4129264;28;20054;-42
2023/02/06 03:45:25;;;;;;;0.40;0.10;;;;;;;;;;4129478;28;20050;-42
2023/02/06 03:47:27;;;;;;;0.20;0.20;;;;;;;;;;4129284;28;20053;-45
2023/02/06 03:49:29;;;;;;;0.20;0.20;;;;;;;;;;4146279;28;20058;-42
2023/02/06 03:51:35;;;;;;;0.28;0.20;;;;;;;;;;4135224;28;20054;-43
2023/02/06 03:53:37;;;;;;;0.52;0.20;;;;;;;;;;4146467;28;20057;-42
2023/02/06 03:55:39;;;;;;;0.63;0.20;;;;;;;;;;4128969;28;20117;-42
2023/02/06 03:57:43;;;;;;;0.80;0.20;;;;;;;;;;4144425;28;20069;-44
2023/02/06 03:59:45;;;;;;;0.20;0.20;;;;;;;;;;4146652;28;20054;-43
2023/02/06 04:01:49;;;;;;;0.20;0.20;;;;;;;;;;4129247;28;20058;-43
2023/02/06 04:03:51;;;;;;;0.15;0.15;;;;;;;;;;4146826;28;20111;-43
2023/02/06 04:05:53;;;;;;;0.85;0.20;;;;;;;;;;4128639;28;20058;-42
2023/02/06 04:07:55;;;;;;;0.35;0.10;;;;;;;;;;4146431;28;20496;-43
2023/02/06 04:09:57;;;;;;;0.20;0.20;;;;;;;;;;4145942;28;20112;-38
2023/02/06 04:11:58;;;;;;;0.10;0.10;;;;;;;;;;4128569;28;20097;-38
2023/02/06 04:13:59;;;;;;;0.30;0.10;;;;;;;;;;4146697;28;20061;-37
2023/02/06 04:16:02;;;;;;;0.10;0.10;;;;;;;;;;4128715;28;20109;-39
2023/02/06 04:18:03;;;;;;;0.20;0.20;;;;;;;;;;4146421;28;20201;-37
2023/02/06 04:20:04;;;;;;;0.20;0.20;;;;;;;;;;4146624;28;20096;-38
2023/02/06 04:22:06;;;;;;;0.17;0.17;;;;;;;;;;4146493;28;20053;-39
2023/02/06 04:24:08;;;;;;;0.10;0.10;;;;;;;;;;4146219;28;20452;-38
2023/02/06 04:26:09;;;;;;;0.20;0.20;;;;;;;;;;4149233;28;20485;-39
2023/02/06 04:28:11;;;;;;;0.20;0.20;;;;;;;;;;4132222;28;20113;-37
2023/02/06 04:30:12;;;;;;;0.45;0.22;;;;;;;;;;4115986;28;20066;-38
2023/02/06 04:32:13;;;;;;;0.20;0.20;;;;;;;;;;4149307;28;20062;-38
2023/02/06 04:34:15;;;;;;;0.50;0.20;;;;;;;;;;4149439;28;20058;-37
2023/02/06 04:36:16;;;;;;;0.75;0.30;;;;;;;;;;4149199;28;20472;-37
2023/02/06 04:38:18;;;;;;;0.30;0.20;;;;;;;;;;4116092;28;20131;-39
2023/02/06 04:40:19;;;;;;;0.25;0.20;;;;;;;;;;4148546;28;20115;-38
2023/02/06 04:42:20;;;;;;;0.38;0.20;;;;;;;;;;4149067;28;20077;-37
2023/02/06 04:44:21;;;;;;;0.25;0.25;;;;;;;;;;4131930;28;20372;-39
2023/02/06 04:46:23;;;;;;;0.15;0.10;;;;;;;;;;4148953;28;20050;-40
2023/02/06 04:48:25;;;;;;;0.20;0.10;;;;;;;;;;4149158;28;20509;-38
2023/02/06 04:50:30;;;;;;;0.10;0.10;;;;;;;;;;4154770;28;20057;-37
2023/02/06 04:52:32;;;;;;;0.20;0.20;;;;;;;;;;4149099;28;20572;-37
2023/02/06 04:54:33;;;;;;;0.22;0.20;;;;;;;;;;4148363;28;20394;-38
2023/02/06 04:56:34;;;;;;;0.40;0.20;;;;;;;;;;4131715;28;20141;-38
2023/02/06 04:58:37;;;;;;;0.57;0.40;;;;;;;;;;4131455;28;20050;-37
2023/02/06 05:00:38;;;;;;;0.35;0.20;;;;;;;;;;4148759;28;20474;-37
2023/02/06 05:02:40;;;;;;;0.20;0.13;;;;;;;;;;4148852;28;20054;-37
2023/02/06 05:04:41;;;;;;;0.28;0.20;;;;;;;;;;4131740;28;20062;-39
2023/02/06 05:06:42;;;;;;;0.50;0.20;;;;;;;;;;4131080;28;20461;-37
2023/02/06 05:08:43;;;;;;;0.68;0.32;;;;;;;;;;4149140;28;20054;-37
2023/02/06 05:10:45;;;;;;;1.60;0.40;;;;;;;;;;4148296;28;20058;-37
2023/02/06 05:12:49;;;;;;;2.05;0.35;;;;;;;;;;4148526;28;20061;-37
2023/02/06 05:14:51;;;;;;;0.45;0.30;;;;;;;;;;4148190;28;20450;-37
2023/02/06 05:16:54;;;;;;;0.93;0.22;;;;;;;;;;4131775;28;20070;-37
2023/02/06 05:18:56;;;;;;;0.38;0.10;;;;;;;;;;4148813;28;20057;-37
2023/02/06 05:20:57;;;;;;;0.65;0.17;;;;;;;;;;4148480;28;20551;-36
2023/02/06 05:22:58;;;;;;;0.57;0.40;;;;;;;;;;4147378;28;20050;-36
2023/02/06 05:24:59;;;;;;;0.30;0.25;;;;;;;;;;4147730;28;20498;-38
2023/02/06 05:27:01;;;;;;;0.30;0.30;;;;;;;;;;4131151;28;20505;-41
2023/02/06 05:29:03;;;;;;;0.50;0.30;;;;;;;;;;4148591;28;20057;-37
2023/02/06 05:31:04;;;;;;;0.47;0.20;;;;;;;;;;4148271;28;20054;-38
2023/02/06 05:33:05;;;;;;;0.82;0.20;;;;;;;;;;4148157;28;20409;-38
2023/02/06 05:35:07;;;;;;;0.55;0.30;;;;;;;;;;4148130;28;20433;-38
2023/02/06 05:37:08;;;;;;;0.68;0.30;;;;;;;;;;4147967;28;20049;-38
2023/02/06 05:39:09;;;;;;;0.63;0.22;;;;;;;;;;4148190;28;20456;-42
2023/02/06 05:41:11;;;;;;;0.85;0.38;;;;;;;;;;4147851;28;20409;-38
2023/02/06 05:43:12;;;;;;;1.10;0.40;;;;;;;;;;4131002;28;20058;-37
2023/02/06 05:45:14;;;;;;;0.30;0.20;;;;;;;;;;4148195;28;20123;-37
2023/02/06 05:47:15;;;;;;;0.28;0.20;;;;;;;;;;4148393;28;20053;-37
2023/02/06 05:49:17;;;;;;;0.60;0.30;;;;;;;;;;4154177;28;20497;-37
2023/02/06 05:51:18;;;;;;;0.65;0.25;;;;;;;;;;4148313;28;20057;-38
2023/02/06 05:53:19;;;;;;;0.50;0.20;;;;;;;;;;4148179;28;20053;-37
2023/02/06 05:55:21;;;;;;;0.25;0.20;;;;;;;;;;4147709;28;20046;-37
2023/02/06 05:57:22;;;;;;;0.95;0.20;;;;;;;;;;4148078;28;20065;-38
2023/02/06 05:59:23;;;;;;;1.02;0.30;;;;;;;;;;4147568;28;20108;-37
2023/02/06 06:01:27;;;;;;;0.73;0.22;;;;;;;;;;4140649;28;20485;-38
2023/02/06 06:03:29;;;;;;;1.55;0.47;;;;;;;;;;4146051;28;20073;-38
2023/02/06 06:05:30;;;;;;;0.55;0.30;;;;;;;;;;4146030;28;20084;-38
2023/02/06 06:07:31;;;;;;;0.68;0.40;;;;;;;;;;4145592;28;20127;-40
2023/02/06 06:09:32;;;;;;;0.68;0.38;;;;;;;;;;4145479;28;20062;-40
2023/02/06 06:11:34;;;;;;;0.30;0.13;;;;;;;;;;4127941;28;20058;-38
2023/02/06 06:13:35;;;;;;;1.08;0.43;;;;;;;;;;4144665;28;20528;-37
2023/02/06 06:15:37;;;;;;;0.63;0.30;;;;;;;;;;4141127;28;20677;-38
2023/02/06 06:17:38;;;;;;;1.67;0.40;;;;;;;;;;4142219;28;20050;-37
2023/02/06 06:19:39;;;;;;;0.50;0.30;;;;;;;;;;4145087;28;20061;-36
2023/02/06 06:21:40;;;;;;;0.63;0.35;;;;;;;;;;4145304;28;20214;-38
2023/02/06 06:23:42;;;;;;;0.60;0.30;;;;;;;;;;4145646;28;20066;-40
2023/02/06 06:25:45;;;;;;;0.80;0.30;;;;;;;;;;4126661;28;20054;-38
2023/02/06 06:27:47;;;;;;;0.50;0.50;;;;;;;;;;4128101;28;20050;-37
2023/02/06 06:29:48;;;;;;;0.35;0.20;;;;;;;;;;4128236;28;20113;-36
2023/02/06 06:31:50;;;;;;;0.77;0.32;;;;;;;;;;4145520;28;20061;-36
2023/02/06 06:33:51;;;;;;;1.13;0.30;;;;;;;;;;4145557;28;20053;-39
2023/02/06 06:35:53;;;;;;;1.33;0.50;;;;;;;;;;4145233;28;20116;-37
2023/02/06 06:37:54;;;;;;;1.13;0.40;;;;;;;;;;4143980;28;20757;-38
2023/02/06 06:39:56;;;;;;;0.70;0.43;;;;;;;;;;4140104;28;20103;-37
2023/02/06 06:41:57;;;;;;;1.90;0.75;;;;;;;;;;4126814;28;20058;-37
2023/02/06 06:43:59;;;;;;;2.55;0.40;;;;;;;;;;4142863;28;20150;-38
2023/02/06 06:46:01;;;;;;;0.98;0.45;;;;;;;;;;4108264;28;20062;-36
2023/02/06 06:48:02;;;;;;;0.65;0.38;;;;;;;;;;4141913;28;20053;-37
2023/02/06 06:50:04;;;;;;;1.27;0.35;;;;;;;;;;4126408;28;20065;-41
2023/02/06 06:52:05;;;;;;;1.20;0.30;;;;;;;;;;4144768;28;20112;-38
2023/02/06 06:54:07;;;;;;;1.35;0.20;;;;;;;;;;4136115;28;20509;-37
2023/02/06 06:56:12;;;;;;;0.57;0.30;;;;;;;;;;4134718;28;20510;-38
2023/02/06 06:58:13;;;;;;;1.90;0.60;;;;;;;;;;4135153;28;20065;-37
2023/02/06 07:00:15;;;;;;;0.82;0.40;;;;;;;;;;4138096;28;20064;-38
2023/02/06 07:02:17;;;;;;;1.83;0.47;;;;;;;;;;4111258;28;20062;-37
2023/02/06 07:04:19;;;;;;;1.42;0.50;;;;;;;;;;4137270;28;20100;-37
2023/02/06 07:06:21;;;;;;;1.63;0.20;;;;;;;;;;4124103;28;20062;-36
2023/02/06 07:08:22;;;;;;;1.05;0.40;;;;;;;;;;4135755;28;20057;-37
2023/02/06 07:10:25;;;;;;;1.30;0.43;;;;;;;;;;4131589;28;20054;-37
2023/02/06 07:12:26;;;;;;;1.52;0.50;;;;;;;;;;4135952;28;20072;-36
2023/02/06 07:14:27;;;;;;;1.95;0.70;;;;;;;;;;4135838;28;20053;-38
2023/02/06 07:16:29;;;;;;;1.20;0.50;;;;;;;;;;4115361;28;20450;-36
2023/02/06 07:18:30;;;;;;;2.88;0.73;;;;;;;;;;4116484;28;20513;-38
2023/02/06 07:20:32;;;;;;;3.30;0.40;;;;;;;;;;4111846;28;20086;-40
2023/02/06 07:22:34;;;;;;;3.72;0.38;;;;;;;;;;4113254;28;20058;-38
2023/02/06 07:24:36;;;;;;;4.47;0.50;;;;;;;;;;4115853;28;20062;-38
2023/02/06 07:26:37;;;;;;;2.50;0.82;;;;;;;;;;4126671;28;20096;-39
2023/02/06 07:28:39;;;;;;;3.40;0.50;;;;;;;;;;4126064;28;20575;-36
2023/02/06 07:30:40;;;;;;;3.70;0.50;;;;;;;;;;4116832;28;20058;-37
2023/02/06 07:32:42;;;;;;;2.97;0.65;;;;;;;;;;4128981;28;20497;-37
2023/02/06 07:34:43;;;;;;;1.55;0.28;;;;;;;;;;4130308;28;20472;-37
2023/02/06 07:36:45;;;;;;;1.70;0.50;;;;;;;;;;4127819;28;20057;-40
2023/02/06 07:38:47;;;;;;;2.00;0.60;;;;;;;;;;4126317;28;20054;-39
2023/02/06 07:40:49;;;;;;;5.10;0.60;;;;;;;;;;4112230;28;20838;-36
2023/02/06 07:42:50;;;;;;;3.78;0.57;;;;;;;;;;4130356;28;20057;-39
2023/02/06 07:44:59;;;;;;;2.25;0.50;;;;;;;;;;4129957;28;20077;-36
2023/02/06 07:47:00;;;;;;;4.20;0.75;;;;;;;;;;4114470;28;20051;-38
2023/02/06 07:49:02;;;;;;;3.38;0.80;;;;;;;;;;4100529;28;20537;-37
2023/02/06 07:51:05;;;;;;;2.95;0.60;;;;;;;;;;4104257;28;20660;-39
2023/02/06 07:53:07;;;;;;;2.35;0.47;;;;;;;;;;4117019;28;20298;-37
2023/02/06 07:55:09;;;;;;;5.72;0.43;;;;;;;;;;4110879;28;20097;-36
2023/02/06 07:57:10;;;;;;;4.15;0.40;;;;;;;;;;4124151;28;20462;-39
2023/02/06 07:59:11;;;;;;;1.42;0.85;;;;;;;;;;4101937;28;20109;-42
2023/02/06 08:01:12;;;;;;;2.80;0.40;;;;;;;;;;4103209;28;20157;-40
2023/02/06 08:03:14;;;;;;;2.70;0.80;;;;;;;;;;4126350;28;20325;-42
2023/02/06 08:05:15;;;;;;;2.33;0.60;;;;;;;;;;4128523;28;20054;-42
2023/02/06 08:07:17;;;;;;;3.92;0.60;;;;;;;;;;4130366;28;20049;-40
2023/02/06 08:09:18;;;;;;;6.40;0.60;;;;;;;;;;4106903;28;20058;-38
2023/02/06 08:11:24;;;;;;;0.75;0.38;;;;;;;;;;4130211;28;20058;-41
2023/02/06 08:13:26;;;;;;;1.58;0.50;;;;;;;;;;4121221;28;20085;-40
2023/02/06 08:15:27;;;;;;;3.35;0.68;;;;;;;;;;4124320;28;20695;-40
2023/02/06 08:17:29;;;;;;;1.58;0.60;;;;;;;;;;4134039;28;20122;-38
2023/02/06 08:19:30;;;;;;;1.52;0.40;;;;;;;;;;4132309;28;20062;-37
2023/02/06 08:21:32;;;;;;;2.25;0.60;;;;;;;;;;4136533;28;20072;-40
2023/02/06 08:23:33;;;;;;;1.23;0.50;;;;;;;;;;4128793;28;20065;-37
2023/02/06 08:25:34;;;;;;;1.33;0.70;;;;;;;;;;4124599;28;20116;-43
2023/02/06 08:27:35;;;;;;;1.42;0.63;;;;;;;;;;4132832;28;20050;-41
2023/02/06 08:29:41;;;;;;;2.22;0.50;;;;;;;;;;4130141;28;20527;-38
2023/02/06 08:31:42;;;;;;;2.70;0.63;;;;;;;;;;4102042;28;20061;-40
2023/02/06 08:33:44;;;;;;;0.68;0.40;;;;;;;;;;4102344;28;20057;-43
2023/02/06 08:35:45;;;;;;;2.20;0.30;;;;;;;;;;4114866;28;20061;-43
2023/02/06 08:37:47;;;;;;;1.83;0.70;;;;;;;;;;4123804;28;20625;-41
2023/02/06 08:39:49;;;;;;;1.45;0.70;;;;;;;;;;4116175;28;21071;-40
2023/02/06 08:41:50;;;;;;;2.53;0.65;;;;;;;;;;4092298;28;20562;-43
2023/02/06 08:43:54;;;;;;;1.33;0.60;;;;;;;;;;4122978;28;20054;-40
2023/02/06 08:45:58;;;;;;;3.08;0.60;;;;;;;;;;4125384;28;20452;-37
2023/02/06 08:47:59;;;;;;;1.90;0.80;;;;;;;;;;4104627;28;20054;-41
2023/02/06 08:50:01;;;;;;;1.10;0.52;;;;;;;;;;4128286;28;20524;-41
2023/02/06 08:52:02;;;;;;;0.93;0.40;;;;;;;;;;4125515;28;20642;-39
2023/02/06 08:54:06;;;;;;;1.25;0.40;;;;;;;;;;4117788;28;20065;-42
2023/02/06 08:56:10;;;;;;;2.72;0.60;;;;;;;;;;4119203;28;20520;-40
2023/02/06 08:58:11;;;;;;;1.08;0.68;;;;;;;;;;4123945;28;20050;-43
2023/02/06 09:00:13;;;;;;;1.73;0.50;;;;;;;;;;4126016;28;20065;-42
2023/02/06 09:02:15;;;;;;;2.95;0.50;;;;;;;;;;4119445;28;21224;-40
2023/02/06 09:04:18;;;;;;;2.35;0.50;;;;;;;;;;4113915;28;20072;-38
2023/02/06 09:06:19;;;;;;;0.95;0.60;;;;;;;;;;4127664;28;20555;-39
2023/02/06 09:08:20;;;;;;;1.40;0.60;;;;;;;;;;4114864;28;20058;-40
2023/02/06 09:10:21;;;;;;;0.90;0.70;;;;;;;;;;4126537;28;20058;-41
2023/02/06 09:12:23;;;;;;;0.40;0.40;;;;;;;;;;4127232;28;20546;-40
2023/02/06 09:14:24;;;;;;;1.63;0.70;;;;;;;;;;4109497;28;20050;-38
2023/02/06 09:16:27;;;;;;;0.65;0.40;;;;;;;;;;4131839;28;20058;-39
2023/02/06 09:18:29;;;;;;;2.13;0.60;;;;;;;;;;4111764;28;20054;-42
2023/02/06 09:20:30;;;;;;;2.15;0.77;;;;;;;;;;4124796;28;20065;-40
2023/02/06 09:22:34;;;;;;;2.17;0.43;;;;;;;;;;4093975;28;20510;-41
2023/02/06 09:24:36;;;;;;;2.05;0.68;;;;;;;;;;4118185;28;20064;-42
2023/02/06 09:26:42;;;;;;;0.90;0.68;;;;;;;;;;4121688;28;20050;-39
2023/02/06 09:28:43;;;;;;;2.70;0.60;;;;;;;;;;4128973;28;20057;-40
2023/02/06 09:30:45;;;;;;;1.42;0.65;;;;;;;;;;4122425;28;20120;-38
2023/02/06 09:32:47;;;;;;;1.65;0.40;;;;;;;;;;4119384;28;20057;-40
2023/02/06 09:34:48;;;;;;;0.80;0.40;;;;;;;;;;4116284;28;20053;-39
2023/02/06 09:36:53;;;;;;;3.38;0.70;;;;;;;;;;4115607;28;20046;-43
2023/02/06 09:38:58;;;;;;;0.80;0.32;;;;;;;;;;4120910;28;20062;-41
2023/02/06 09:41:02;;;;;;;2.33;0.50;;;;;;;;;;4120980;28;20054;-39
2023/02/06 09:43:03;;;;;;;3.55;0.57;;;;;;;;;;4127218;28;20112;-40
2023/02/06 09:45:10;;;;;;;1.85;0.50;;;;;;;;;;4120417;28;20148;-40
2023/02/06 09:47:32;;;;;;;2.05;0.40;;;;;;;;;;4103633;28;20352;-42
2023/02/06 09:50:07;;;;;;;1.17;0.82;;;;;;;;;;4109449;28;20073;-42
2023/02/06 09:52:23;;;;;;;1.27;0.80;;;;;;;;;;4127947;28;20073;-43
2023/02/06 09:54:36;;;;;;;1.95;0.50;;;;;;;;;;4092282;28;20760;-42
2023/02/06 09:56:49;;;;;;;1.02;0.40;;;;;;;;;;4107303;28;20058;-39
2023/02/06 09:58:58;;;;;;;1.30;0.73;;;;;;;;;;4117205;28;20642;-42
2023/02/06 10:01:26;;;;;;;3.67;0.60;;;;;;;;;;4116159;28;20053;-40
2023/02/06 10:03:46;;;;;;;1.08;0.40;;;;;;;;;;4103143;28;20062;-41
2023/02/06 10:06:18;;;;;;;1.48;0.50;;;;;;;;;;4091543;28;20058;-38
2023/02/06 10:08:39;;;;;;;1.30;0.50;;;;;;;;;;4119688;28;20054;-43
2023/02/06 10:10:43;;;;;;;;;;;;;;;;;;4120919;28;20497;-40
2023/02/06 10:13:02;;;;;;;1.80;0.68;;;;;;;;;;4122756;28;20459;-38
2023/02/06 10:15:11;;;;;;;1.92;0.50;;;;;;;;;;4096715;28;20065;-41
2023/02/06 10:17:21;;;;;;;1.50;0.45;;;;;;;;;;4099442;28;20091;-40
2023/02/06 10:19:40;;;;;;;0.93;0.68;;;;;;;;;;4116761;28;20050;-41
2023/02/06 10:21:51;;;;;;;1.50;0.70;;;;;;;;;;4107067;28;20062;-41
2023/02/06 10:23:59;;;;;;;3.63;0.70;;;;;;;;;;4106625;28;20130;-40
2023/02/06 10:26:11;;;;;;;2.63;0.68;;;;;;;;;;4110793;28;20057;-41
2023/02/06 10:28:27;;;;;;;1.63;0.68;;;;;;;;;;4123829;28;20049;-41
2023/02/06 10:30:44;;;;;;;1.60;0.50;;;;;;;;;;4123231;28;20064;-40
2023/02/06 10:32:57;;;;;;;1.83;0.47;;;;;;;;;;4084100;28;20062;-40
2023/02/06 10:35:15;;;;;;;2.05;0.73;;;;;;;;;;4116896;28;20049;-38
2023/02/06 10:37:35;;;;;;;0.77;0.50;;;;;;;;;;4120569;28;20599;-41
2023/02/06 10:39:46;;;;;;;1.60;0.47;;;;;;;;;;4074692;28;21670;-38
2023/02/06 10:42:03;;;;;;;1.98;0.63;;;;;;;;;;4117979;28;20073;-44
2023/02/06 10:44:20;;;;;;;1.10;0.52;;;;;;;;;;4109765;28;20419;-41
2023/02/06 10:46:37;;;;;;;4.90;0.60;;;;;;;;;;4117596;28;20066;-38
2023/02/06 10:48:54;;;;;;;2.13;0.70;;;;;;;;;;4118032;28;20568;-38
2023/02/06 10:51:14;;;;;;;0.77;0.38;;;;;;;;;;4100515;28;21288;-39
2023/02/06 10:53:38;;;;;;;2.80;0.50;;;;;;;;;;4130941;28;20108;-40
2023/02/06 10:56:08;;;;;;;0.70;0.50;;;;;;;;;;4113859;28;20058;-39
2023/02/06 10:58:40;;;;;;;2.22;0.60;;;;;;;;;;4112565;28;20145;-39
2023/02/06 11:00:43;;;;;;;1.67;0.73;;;;;;;;;;4123791;28;20053;-39
2023/02/06 11:02:44;;;;;;;3.03;0.65;;;;;;;;;;4134320;28;20104;-38
2023/02/06 11:05:13;;;;;;;1.85;0.70;;;;;;;;;;4111506;28;20865;-41
2023/02/06 11:07:25;;;;;;;3.42;0.50;;;;;;;;;;4130509;28;20054;-39
2023/02/06 11:09:26;;;;;;;1.35;0.40;;;;;;;;;;4113927;28;20053;-38
2023/02/06 11:11:30;;;;;;;0.70;0.60;;;;;;;;;;4129927;28;20130;-39
2023/02/06 11:13:35;;;;;;;0.80;0.50;;;;;;;;;;4111875;28;20180;-40
2023/02/06 11:15:39;;;;;;;1.02;0.50;;;;;;;;;;4118040;28;20065;-38
2023/02/06 11:17:41;;;;;;;1.50;0.40;;;;;;;;;;4115087;28;20050;-39
2023/02/06 11:19:43;;;;;;;1.10;0.52;;;;;;;;;;4112668;28;20058;-43
2023/02/06 11:21:51;;;;;;;1.27;0.65;;;;;;;;;;4116792;28;20058;-39
2023/02/06 11:24:11;;;;;;;1.00;0.40;;;;;;;;;;4119561;28;20129;-40
2023/02/06 11:26:19;;;;;;;1.65;0.60;;;;;;;;;;4110294;28;20116;-42
2023/02/06 11:28:23;;;;;;;2.08;0.65;;;;;;;;;;4105438;28;20054;-43
2023/02/06 11:30:28;;;;;;;0.70;0.30;;;;;;;;;;4108069;28;20062;-41
2023/02/06 11:32:39;;;;;;;0.85;0.40;;;;;;;;;;4106424;28;20057;-42
2023/02/06 11:34:55;;;;;;;2.28;0.47;;;;;;;;;;4111324;28;20466;-41
2023/02/06 11:37:04;;;;;;;2.33;0.60;;;;;;;;;;4114242;28;20069;-41
2023/02/06 11:39:20;;;;;;;2.45;0.52;;;;;;;;;;4115705;28;20544;-38
2023/02/06 11:41:21;;;;;;;1.23;0.70;;;;;;;;;;4116892;28;20062;-42
2023/02/06 11:43:26;;;;;;;1.48;0.50;;;;;;;;;;4115835;28;20272;-39
2023/02/06 11:45:32;;;;;;;2.42;0.57;;;;;;;;;;4106938;28;20077;-43
2023/02/06 11:47:35;;;;;;;1.80;0.40;;;;;;;;;;4101999;28;20132;-40
2023/02/06 11:49:36;;;;;;;0.63;0.45;;;;;;;;;;4103419;28;20494;-41
2023/02/06 11:51:55;;;;;;;1.25;0.85;;;;;;;;;;4112058;28;20062;-39
2023/02/06 11:54:02;;;;;;;3.17;0.60;;;;;;;;;;4108229;28;21854;-40
2023/02/06 11:56:15;;;;;;;1.27;0.52;;;;;;;;;;4090786;28;20070;-40
2023/02/06 11:58:24;;;;;;;1.35;0.40;;;;;;;;;;4081636;28;20106;-41
2023/02/06 12:00:26;;;;;;;2.30;0.50;;;;;;;;;;4081425;28;20062;-39
2023/02/06 12:02:29;;;;;;;1.25;0.52;;;;;;;;;;4105195;28;20417;-38
2023/02/06 12:04:37;;;;;;;2.95;0.52;;;;;;;;;;4105756;28;20114;-41
2023/02/06 12:06:39;;;;;;;3.00;0.70;;;;;;;;;;4108622;28;21312;-44
2023/02/06 12:08:45;;;;;;;2.63;0.57;;;;;;;;;;4092279;28;20110;-42
2023/02/06 12:11:09;;;;;;;1.17;0.47;;;;;;;;;;4108627;28;20069;-39
2023/02/06 12:13:19;;;;;;;0.88;0.45;;;;;;;;;;4105739;28;20059;-43
2023/02/06 12:15:22;;;;;;;;;;;;;;;;;;4112489;28;20589;-39
2023/02/06 12:17:31;;;;;;;1.00;0.50;;;;;;;;;;4110712;28;19930;-42
2023/02/06 12:19:43;;;;;;;1.25;0.40;;;;;;;;;;4127845;28;20049;-40
2023/02/06 12:21:57;;;;;;;2.78;0.60;;;;;;;;;;4131057;28;20413;-40
2023/02/06 12:24:00;;;;;;;2.95;0.60;;;;;;;;;;4102006;28;20556;-44
2023/02/06 12:26:23;;;;;;;0.63;0.43;;;;;;;;;;4128479;28;20475;-40
2023/02/06 12:28:36;;;;;;;1.10;0.50;;;;;;;;;;4100178;28;20059;-39
2023/02/06 12:30:42;;;;;;;1.65;0.50;;;;;;;;;;4124053;28;20108;-39